CheckWX is a tool to help pilots better visualize weather data.  It is not intended as a substitute for an official pre-flight weather briefing.

05:17:47 UTC

CYQK METAR
Kenora Airport
Kenora, Canada
Current

1 hour ago

CYQK 200400Z 20009KT 20SM SKC M17/M19 A3013 RMK SLP248
Observed
Feb-20 @ 04:00 UTC
Wind
  • 200° at 9 KTS
Visibility
32,187 meters
Flight Rules
VFR
Cloud Levels
  • Clear skies
Temperature
-17°C / 1°F
Dewpoint
-19°C / -2°F
Humidity
85%
Altimeter
30.13" Hg
Pressure
1024.8 hPa
Previous

2 hours ago

CYQK 200300Z 20012KT 20SM SKC M16/M19 A3013 RMK SLP247
Observed
Feb-20 @ 03:00 UTC
Wind
  • 200° at 12 KTS
Visibility
32,187 meters
Flight Rules
VFR
Cloud Levels
  • Clear skies
Temperature
-16°C / 3°F
Dewpoint
-19°C / -2°F
Humidity
78%
Altimeter
30.13" Hg
Pressure
1024.7 hPa
Previous

3 hours ago

CYQK 200200Z 20010KT 20SM FEW100 FEW240 M15/M19 A3013 RMK AC1CI1 SLP249
Observed
Feb-20 @ 02:00 UTC
Wind
  • 200° at 10 KTS
Visibility
32,187 meters
Flight Rules
VFR
Cloud Levels
  • Few at 10,000' AGL
  • Few at 24,000' AGL
Temperature
-15°C / 5°F
Dewpoint
-19°C / -2°F
Humidity
72%
Altimeter
30.13" Hg
Pressure
1024.9 hPa